sensor_id;sensor_type;location;lat;lon;timestamp;P1;durP1;ratioP1;P2;durP2;ratioP2
2658;SDS011;1339;53.304;10.406;2023-05-20T00:01:50;2.13;;;1.45;;
2658;SDS011;1339;53.304;10.406;2023-05-20T00:04:19;1.70;;;1.27;;
2658;SDS011;1339;53.304;10.406;2023-05-20T00:06:46;3.85;;;1.30;;
2658;SDS011;1339;53.304;10.406;2023-05-20T00:09:12;1.20;;;1.02;;
2658;SDS011;1339;53.304;10.406;2023-05-20T00:11:40;1.83;;;1.48;;
2658;SDS011;1339;53.304;10.406;2023-05-20T00:14:07;1.17;;;1.00;;
2658;SDS011;1339;53.304;10.406;2023-05-20T00:16:34;1.08;;;0.98;;
2658;SDS011;1339;53.304;10.406;2023-05-20T00:19:01;1.27;;;0.90;;
2658;SDS011;1339;53.304;10.406;2023-05-20T00:21:30;3.00;;;1.60;;
2658;SDS011;1339;53.304;10.406;2023-05-20T00:23:57;2.10;;;1.23;;
2658;SDS011;1339;53.304;10.406;2023-05-20T00:26:25;1.40;;;1.00;;
2658;SDS011;1339;53.304;10.406;2023-05-20T00:28:52;2.22;;;1.30;;
2658;SDS011;1339;53.304;10.406;2023-05-20T00:31:19;2.50;;;2.30;;
2658;SDS011;1339;53.304;10.406;2023-05-20T00:33:46;1.48;;;1.10;;
2658;SDS011;1339;53.304;10.406;2023-05-20T00:36:13;2.92;;;1.08;;
2658;SDS011;1339;53.304;10.406;2023-05-20T00:38:41;1.85;;;1.27;;
2658;SDS011;1339;53.304;10.406;2023-05-20T00:41:08;3.47;;;1.50;;
2658;SDS011;1339;53.304;10.406;2023-05-20T00:43:35;1.60;;;1.40;;
2658;SDS011;1339;53.304;10.406;2023-05-20T00:46:02;1.55;;;1.42;;
2658;SDS011;1339;53.304;10.406;2023-05-20T00:48:32;3.72;;;1.63;;
2658;SDS011;1339;53.304;10.406;2023-05-20T00:51:02;2.28;;;1.20;;
2658;SDS011;1339;53.304;10.406;2023-05-20T00:53:29;1.83;;;1.63;;
2658;SDS011;1339;53.304;10.406;2023-05-20T00:55:57;2.47;;;1.92;;
2658;SDS011;1339;53.304;10.406;2023-05-20T00:58:24;1.40;;;1.10;;
2658;SDS011;1339;53.304;10.406;2023-05-20T01:00:51;1.10;;;0.88;;
2658;SDS011;1339;53.304;10.406;2023-05-20T01:03:18;1.25;;;1.15;;
2658;SDS011;1339;53.304;10.406;2023-05-20T01:05:46;2.00;;;1.45;;
2658;SDS011;1339;53.304;10.406;2023-05-20T01:08:13;1.30;;;1.10;;
2658;SDS011;1339;53.304;10.406;2023-05-20T01:10:41;3.28;;;2.85;;
2658;SDS011;1339;53.304;10.406;2023-05-20T01:13:09;1.35;;;1.25;;
2658;SDS011;1339;53.304;10.406;2023-05-20T01:15:37;1.85;;;1.00;;
2658;SDS011;1339;53.304;10.406;2023-05-20T01:18:06;1.45;;;1.30;;
2658;SDS011;1339;53.304;10.406;2023-05-20T01:20:35;1.75;;;1.00;;
2658;SDS011;1339;53.304;10.406;2023-05-20T01:23:04;1.80;;;1.30;;
2658;SDS011;1339;53.304;10.406;2023-05-20T01:25:31;2.88;;;1.15;;
2658;SDS011;1339;53.304;10.406;2023-05-20T01:27:58;1.48;;;1.25;;
2658;SDS011;1339;53.304;10.406;2023-05-20T01:30:25;1.40;;;1.00;;
2658;SDS011;1339;53.304;10.406;2023-05-20T01:32:57;2.45;;;1.00;;
2658;SDS011;1339;53.304;10.406;2023-05-20T01:35:25;1.52;;;1.15;;
2658;SDS011;1339;53.304;10.406;2023-05-20T01:37:52;1.40;;;1.30;;
2658;SDS011;1339;53.304;10.406;2023-05-20T01:40:20;1.27;;;0.95;;
2658;SDS011;1339;53.304;10.406;2023-05-20T01:42:47;2.75;;;1.30;;
2658;SDS011;1339;53.304;10.406;2023-05-20T01:45:17;1.35;;;1.25;;
2658;SDS011;1339;53.304;10.406;2023-05-20T01:47:44;2.40;;;2.15;;
2658;SDS011;1339;53.304;10.406;2023-05-20T01:50:10;1.73;;;1.13;;
2658;SDS011;1339;53.304;10.406;2023-05-20T01:52:37;2.00;;;1.23;;
2658;SDS011;1339;53.304;10.406;2023-05-20T01:55:05;2.40;;;1.25;;
2658;SDS011;1339;53.304;10.406;2023-05-20T01:57:33;1.40;;;1.30;;
2658;SDS011;1339;53.304;10.406;2023-05-20T02:00:00;2.05;;;1.35;;
2658;SDS011;1339;53.304;10.406;2023-05-20T02:02:27;3.05;;;1.00;;
2658;SDS011;1339;53.304;10.406;2023-05-20T02:04:54;2.00;;;1.00;;
2658;SDS011;1339;53.304;10.406;2023-05-20T02:07:21;2.53;;;1.33;;
2658;SDS011;1339;53.304;10.406;2023-05-20T02:09:48;1.27;;;1.17;;
2658;SDS011;1339;53.304;10.406;2023-05-20T02:12:15;1.27;;;1.17;;
2658;SDS011;1339;53.304;10.406;2023-05-20T02:14:43;1.50;;;1.23;;
2658;SDS011;1339;53.304;10.406;2023-05-20T02:17:10;2.22;;;1.20;;
2658;SDS011;1339;53.304;10.406;2023-05-20T02:19:38;2.13;;;1.20;;
2658;SDS011;1339;53.304;10.406;2023-05-20T02:22:05;1.95;;;1.20;;
2658;SDS011;1339;53.304;10.406;2023-05-20T02:24:32;2.75;;;1.00;;
2658;SDS011;1339;53.304;10.406;2023-05-20T02:27:00;1.90;;;1.20;;
2658;SDS011;1339;53.304;10.406;2023-05-20T02:29:28;1.42;;;1.10;;
2658;SDS011;1339;53.304;10.406;2023-05-20T02:31:57;6.60;;;1.60;;
2658;SDS011;1339;53.304;10.406;2023-05-20T02:34:23;2.13;;;1.30;;
2658;SDS011;1339;53.304;10.406;2023-05-20T02:36:50;1.42;;;1.00;;
2658;SDS011;1339;53.304;10.406;2023-05-20T02:39:18;1.40;;;1.10;;
2658;SDS011;1339;53.304;10.406;2023-05-20T02:41:45;4.03;;;1.55;;
2658;SDS011;1339;53.304;10.406;2023-05-20T02:44:12;2.20;;;1.30;;
2658;SDS011;1339;53.304;10.406;2023-05-20T02:46:39;2.60;;;1.55;;
2658;SDS011;1339;53.304;10.406;2023-05-20T02:49:07;1.98;;;1.10;;
2658;SDS011;1339;53.304;10.406;2023-05-20T02:51:35;1.45;;;1.00;;
2658;SDS011;1339;53.304;10.406;2023-05-20T02:54:02;2.47;;;1.25;;
2658;SDS011;1339;53.304;10.406;2023-05-20T02:56:29;1.45;;;1.08;;
2658;SDS011;1339;53.304;10.406;2023-05-20T02:58:56;3.25;;;1.35;;
2658;SDS011;1339;53.304;10.406;2023-05-20T03:01:24;1.50;;;1.40;;
2658;SDS011;1339;53.304;10.406;2023-05-20T03:03:51;2.72;;;1.50;;
2658;SDS011;1339;53.304;10.406;2023-05-20T03:06:19;3.33;;;1.65;;
2658;SDS011;1339;53.304;10.406;2023-05-20T03:08:46;1.63;;;1.33;;
2658;SDS011;1339;53.304;10.406;2023-05-20T03:11:13;1.42;;;1.33;;
2658;SDS011;1339;53.304;10.406;2023-05-20T03:13:40;1.90;;;1.40;;
2658;SDS011;1339;53.304;10.406;2023-05-20T03:16:07;2.28;;;1.33;;
2658;SDS011;1339;53.304;10.406;2023-05-20T03:18:34;2.00;;;1.52;;
2658;SDS011;1339;53.304;10.406;2023-05-20T03:21:01;3.63;;;1.85;;
2658;SDS011;1339;53.304;10.406;2023-05-20T03:23:29;1.83;;;1.13;;
2658;SDS011;1339;53.304;10.406;2023-05-20T03:25:56;2.55;;;1.42;;
2658;SDS011;1339;53.304;10.406;2023-05-20T03:28:23;1.58;;;1.48;;
2658;SDS011;1339;53.304;10.406;2023-05-20T03:30:50;2.15;;;1.55;;
2658;SDS011;1339;53.304;10.406;2023-05-20T03:33:17;3.55;;;1.30;;
2658;SDS011;1339;53.304;10.406;2023-05-20T03:35:44;2.20;;;1.60;;
2658;SDS011;1339;53.304;10.406;2023-05-20T03:38:11;2.58;;;1.75;;
2658;SDS011;1339;53.304;10.406;2023-05-20T03:40:39;2.55;;;1.30;;
2658;SDS011;1339;53.304;10.406;2023-05-20T03:43:06;1.80;;;1.33;;
2658;SDS011;1339;53.304;10.406;2023-05-20T03:45:33;1.80;;;1.40;;
2658;SDS011;1339;53.304;10.406;2023-05-20T03:48:00;2.35;;;1.15;;
2658;SDS011;1339;53.304;10.406;2023-05-20T03:50:28;3.08;;;1.60;;
2658;SDS011;1339;53.304;10.406;2023-05-20T03:52:55;1.95;;;1.52;;
2658;SDS011;1339;53.304;10.406;2023-05-20T03:55:22;2.67;;;1.23;;
2658;SDS011;1339;53.304;10.406;2023-05-20T03:57:51;1.80;;;1.60;;
2658;SDS011;1339;53.304;10.406;2023-05-20T04:00:18;1.70;;;1.60;;
2658;SDS011;1339;53.304;10.406;2023-05-20T04:02:45;2.60;;;1.55;;
2658;SDS011;1339;53.304;10.406;2023-05-20T04:05:12;4.70;;;2.35;;
2658;SDS011;1339;53.304;10.406;2023-05-20T04:07:38;3.08;;;1.52;;
2658;SDS011;1339;53.304;10.406;2023-05-20T04:10:06;1.60;;;1.50;;
2658;SDS011;1339;53.304;10.406;2023-05-20T04:12:33;4.45;;;1.55;;
2658;SDS011;1339;53.304;10.406;2023-05-20T04:15:03;2.78;;;1.60;;
2658;SDS011;1339;53.304;10.406;2023-05-20T04:17:30;1.50;;;1.40;;
2658;SDS011;1339;53.304;10.406;2023-05-20T04:19:57;1.77;;;1.45;;
2658;SDS011;1339;53.304;10.406;2023-05-20T04:22:24;1.65;;;1.55;;
2658;SDS011;1339;53.304;10.406;2023-05-20T04:24:51;2.30;;;1.45;;
2658;SDS011;1339;53.304;10.406;2023-05-20T04:27:18;2.88;;;1.27;;
2658;SDS011;1339;53.304;10.406;2023-05-20T04:29:45;1.58;;;1.40;;
2658;SDS011;1339;53.304;10.406;2023-05-20T04:32:15;1.95;;;1.70;;
2658;SDS011;1339;53.304;10.406;2023-05-20T04:34:43;3.55;;;1.75;;
2658;SDS011;1339;53.304;10.406;2023-05-20T04:37:10;4.90;;;1.60;;
2658;SDS011;1339;53.304;10.406;2023-05-20T04:39:37;1.50;;;1.40;;
2658;SDS011;1339;53.304;10.406;2023-05-20T04:42:04;2.55;;;1.42;;
2658;SDS011;1339;53.304;10.406;2023-05-20T04:44:31;1.73;;;1.63;;
2658;SDS011;1339;53.304;10.406;2023-05-20T04:46:59;1.98;;;1.80;;
2658;SDS011;1339;53.304;10.406;2023-05-20T04:49:27;1.85;;;1.23;;
2658;SDS011;1339;53.304;10.406;2023-05-20T04:51:54;1.85;;;1.70;;
2658;SDS011;1339;53.304;10.406;2023-05-20T04:54:21;2.35;;;1.75;;
2658;SDS011;1339;53.304;10.406;2023-05-20T04:56:49;1.95;;;1.50;;
2658;SDS011;1339;53.304;10.406;2023-05-20T04:59:16;2.00;;;1.90;;
2658;SDS011;1339;53.304;10.406;2023-05-20T05:01:43;2.20;;;1.58;;
2658;SDS011;1339;53.304;10.406;2023-05-20T05:04:10;3.13;;;1.65;;
2658;SDS011;1339;53.304;10.406;2023-05-20T05:06:38;1.70;;;1.58;;
2658;SDS011;1339;53.304;10.406;2023-05-20T05:09:05;1.70;;;1.60;;
2658;SDS011;1339;53.304;10.406;2023-05-20T05:11:33;2.35;;;1.42;;
2658;SDS011;1339;53.304;10.406;2023-05-20T05:14:00;2.45;;;1.75;;
2658;SDS011;1339;53.304;10.406;2023-05-20T05:16:27;1.80;;;1.70;;
2658;SDS011;1339;53.304;10.406;2023-05-20T05:18:54;1.55;;;1.42;;
2658;SDS011;1339;53.304;10.406;2023-05-20T05:21:21;1.90;;;1.80;;
2658;SDS011;1339;53.304;10.406;2023-05-20T05:23:49;2.40;;;1.88;;
2658;SDS011;1339;53.304;10.406;2023-05-20T05:26:16;4.32;;;2.28;;
2658;SDS011;1339;53.304;10.406;2023-05-20T05:28:43;2.45;;;1.55;;
2658;SDS011;1339;53.304;10.406;2023-05-20T05:31:10;1.50;;;1.40;;
2658;SDS011;1339;53.304;10.406;2023-05-20T05:33:37;2.00;;;1.80;;
2658;SDS011;1339;53.304;10.406;2023-05-20T05:36:04;4.97;;;2.10;;
2658;SDS011;1339;53.304;10.406;2023-05-20T05:38:31;2.67;;;2.47;;
2658;SDS011;1339;53.304;10.406;2023-05-20T05:40:59;1.40;;;1.30;;
2658;SDS011;1339;53.304;10.406;2023-05-20T05:43:26;2.33;;;2.10;;
2658;SDS011;1339;53.304;10.406;2023-05-20T05:45:53;3.33;;;1.88;;
2658;SDS011;1339;53.304;10.406;2023-05-20T05:48:20;2.40;;;1.60;;
2658;SDS011;1339;53.304;10.406;2023-05-20T05:50:47;1.98;;;1.77;;
2658;SDS011;1339;53.304;10.406;2023-05-20T05:53:14;2.63;;;2.20;;
2658;SDS011;1339;53.304;10.406;2023-05-20T05:55:41;2.38;;;1.90;;
2658;SDS011;1339;53.304;10.406;2023-05-20T05:58:09;5.72;;;2.03;;
2658;SDS011;1339;53.304;10.406;2023-05-20T06:00:37;2.80;;;1.90;;
2658;SDS011;1339;53.304;10.406;2023-05-20T06:03:03;2.97;;;2.00;;
2658;SDS011;1339;53.304;10.406;2023-05-20T06:05:30;2.55;;;2.00;;
2658;SDS011;1339;53.304;10.406;2023-05-20T06:07:57;3.50;;;2.05;;
2658;SDS011;1339;53.304;10.406;2023-05-20T06:10:24;2.03;;;1.75;;
2658;SDS011;1339;53.304;10.406;2023-05-20T06:12:51;3.53;;;1.73;;
2658;SDS011;1339;53.304;10.406;2023-05-20T06:15:20;1.70;;;1.60;;
2658;SDS011;1339;53.304;10.406;2023-05-20T06:17:47;2.83;;;2.60;;
2658;SDS011;1339;53.304;10.406;2023-05-20T06:20:13;4.97;;;2.03;;
2658;SDS011;1339;53.304;10.406;2023-05-20T06:22:40;3.58;;;1.83;;
2658;SDS011;1339;53.304;10.406;2023-05-20T06:25:08;3.33;;;2.20;;
2658;SDS011;1339;53.304;10.406;2023-05-20T06:27:35;1.73;;;1.63;;
2658;SDS011;1339;53.304;10.406;2023-05-20T06:30:02;3.30;;;2.22;;
2658;SDS011;1339;53.304;10.406;2023-05-20T06:32:30;4.43;;;1.88;;
2658;SDS011;1339;53.304;10.406;2023-05-20T06:34:57;2.80;;;2.60;;
2658;SDS011;1339;53.304;10.406;2023-05-20T06:37:24;2.00;;;1.80;;
2658;SDS011;1339;53.304;10.406;2023-05-20T06:39:51;1.92;;;1.73;;
2658;SDS011;1339;53.304;10.406;2023-05-20T06:42:19;1.92;;;1.55;;
2658;SDS011;1339;53.304;10.406;2023-05-20T06:44:46;1.60;;;1.50;;
2658;SDS011;1339;53.304;10.406;2023-05-20T06:47:13;3.07;;;2.20;;
2658;SDS011;1339;53.304;10.406;2023-05-20T06:49:42;3.33;;;1.88;;
2658;SDS011;1339;53.304;10.406;2023-05-20T06:52:09;3.28;;;2.17;;
2658;SDS011;1339;53.304;10.406;2023-05-20T06:54:36;2.28;;;1.95;;
2658;SDS011;1339;53.304;10.406;2023-05-20T06:57:05;3.78;;;2.30;;
2658;SDS011;1339;53.304;10.406;2023-05-20T06:59:35;2.97;;;2.67;;
2658;SDS011;1339;53.304;10.406;2023-05-20T07:02:02;2.50;;;2.23;;
2658;SDS011;1339;53.304;10.406;2023-05-20T07:04:30;4.20;;;2.43;;
2658;SDS011;1339;53.304;10.406;2023-05-20T07:06:58;2.90;;;2.23;;
2658;SDS011;1339;53.304;10.406;2023-05-20T07:09:25;1.93;;;1.80;;
2658;SDS011;1339;53.304;10.406;2023-05-20T07:11:52;2.50;;;2.20;;
2658;SDS011;1339;53.304;10.406;2023-05-20T07:14:19;2.37;;;2.17;;
2658;SDS011;1339;53.304;10.406;2023-05-20T07:16:46;3.40;;;2.40;;
2658;SDS011;1339;53.304;10.406;2023-05-20T07:19:13;2.57;;;1.83;;
2658;SDS011;1339;53.304;10.406;2023-05-20T07:21:40;2.43;;;2.23;;
2658;SDS011;1339;53.304;10.406;2023-05-20T07:24:08;2.67;;;2.33;;
2658;SDS011;1339;53.304;10.406;2023-05-20T07:26:35;2.53;;;2.33;;
2658;SDS011;1339;53.304;10.406;2023-05-20T07:29:02;1.80;;;1.60;;
2658;SDS011;1339;53.304;10.406;2023-05-20T07:31:29;1.83;;;1.73;;
2658;SDS011;1339;53.304;10.406;2023-05-20T07:33:56;3.73;;;2.30;;
2658;SDS011;1339;53.304;10.406;2023-05-20T07:36:25;3.47;;;1.83;;
2658;SDS011;1339;53.304;10.406;2023-05-20T07:38:52;3.07;;;2.13;;
2658;SDS011;1339;53.304;10.406;2023-05-20T07:41:20;2.10;;;1.90;;
2658;SDS011;1339;53.304;10.406;2023-05-20T07:43:47;2.57;;;2.20;;
2658;SDS011;1339;53.304;10.406;2023-05-20T07:46:14;2.73;;;2.53;;
2658;SDS011;1339;53.304;10.406;2023-05-20T07:48:41;3.93;;;2.23;;
2658;SDS011;1339;53.304;10.406;2023-05-20T07:51:09;2.60;;;1.93;;
2658;SDS011;1339;53.304;10.406;2023-05-20T07:53:36;3.80;;;2.20;;
2658;SDS011;1339;53.304;10.406;2023-05-20T07:56:03;3.83;;;2.00;;
2658;SDS011;1339;53.304;10.406;2023-05-20T07:58:32;2.60;;;2.00;;
2658;SDS011;1339;53.304;10.406;2023-05-20T08:00:59;3.87;;;2.33;;
2658;SDS011;1339;53.304;10.406;2023-05-20T08:03:26;2.43;;;1.83;;
2658;SDS011;1339;53.304;10.406;2023-05-20T08:05:52;2.80;;;2.07;;
2658;SDS011;1339;53.304;10.406;2023-05-20T08:08:19;2.57;;;2.13;;
2658;SDS011;1339;53.304;10.406;2023-05-20T08:10:46;3.60;;;2.40;;
2658;SDS011;1339;53.304;10.406;2023-05-20T08:13:13;2.67;;;2.47;;
2658;SDS011;1339;53.304;10.406;2023-05-20T08:15:44;3.97;;;2.53;;
2658;SDS011;1339;53.304;10.406;2023-05-20T08:18:12;4.17;;;2.23;;
2658;SDS011;1339;53.304;10.406;2023-05-20T08:20:39;3.20;;;2.10;;
2658;SDS011;1339;53.304;10.406;2023-05-20T08:23:07;3.57;;;3.00;;
2658;SDS011;1339;53.304;10.406;2023-05-20T08:25:34;2.43;;;2.10;;
2658;SDS011;1339;53.304;10.406;2023-05-20T08:28:02;2.30;;;2.10;;
2658;SDS011;1339;53.304;10.406;2023-05-20T08:30:30;2.07;;;1.80;;
2658;SDS011;1339;53.304;10.406;2023-05-20T08:32:58;2.07;;;1.87;;
2658;SDS011;1339;53.304;10.406;2023-05-20T08:35:25;2.30;;;2.10;;
2658;SDS011;1339;53.304;10.406;2023-05-20T08:37:52;3.17;;;2.00;;
2658;SDS011;1339;53.304;10.406;2023-05-20T08:40:19;7.73;;;2.30;;
2658;SDS011;1339;53.304;10.406;2023-05-20T08:42:47;4.37;;;2.17;;
2658;SDS011;1339;53.304;10.406;2023-05-20T08:45:14;3.27;;;1.77;;
2658;SDS011;1339;53.304;10.406;2023-05-20T08:47:43;2.67;;;1.70;;
2658;SDS011;1339;53.304;10.406;2023-05-20T08:50:11;3.00;;;2.27;;
2658;SDS011;1339;53.304;10.406;2023-05-20T08:52:41;2.47;;;2.27;;
2658;SDS011;1339;53.304;10.406;2023-05-20T08:55:08;2.07;;;1.60;;
2658;SDS011;1339;53.304;10.406;2023-05-20T08:57:37;2.47;;;2.10;;
2658;SDS011;1339;53.304;10.406;2023-05-20T09:00:06;2.10;;;1.90;;
2658;SDS011;1339;53.304;10.406;2023-05-20T09:02:37;1.93;;;1.73;;
2658;SDS011;1339;53.304;10.406;2023-05-20T09:05:04;2.07;;;1.87;;
2658;SDS011;1339;53.304;10.406;2023-05-20T09:07:33;2.90;;;2.00;;
2658;SDS011;1339;53.304;10.406;2023-05-20T09:10:00;2.60;;;1.80;;
2658;SDS011;1339;53.304;10.406;2023-05-20T09:12:27;1.73;;;1.63;;
2658;SDS011;1339;53.304;10.406;2023-05-20T09:14:54;1.80;;;1.60;;
2658;SDS011;1339;53.304;10.406;2023-05-20T09:17:21;2.87;;;1.63;;
2658;SDS011;1339;53.304;10.406;2023-05-20T09:19:49;5.83;;;2.00;;
2658;SDS011;1339;53.304;10.406;2023-05-20T09:22:20;3.43;;;1.47;;
2658;SDS011;1339;53.304;10.406;2023-05-20T09:24:48;1.60;;;1.50;;
2658;SDS011;1339;53.304;10.406;2023-05-20T09:27:16;2.33;;;1.67;;
2658;SDS011;1339;53.304;10.406;2023-05-20T09:29:42;3.00;;;1.40;;
2658;SDS011;1339;53.304;10.406;2023-05-20T09:32:10;3.63;;;2.27;;
2658;SDS011;1339;53.304;10.406;2023-05-20T09:34:37;3.90;;;1.67;;
2658;SDS011;1339;53.304;10.406;2023-05-20T09:37:06;1.57;;;1.40;;
2658;SDS011;1339;53.304;10.406;2023-05-20T09:39:36;4.27;;;1.80;;
2658;SDS011;1339;53.304;10.406;2023-05-20T09:42:08;2.40;;;1.80;;
2658;SDS011;1339;53.304;10.406;2023-05-20T09:44:37;4.97;;;1.70;;
2658;SDS011;1339;53.304;10.406;2023-05-20T09:47:05;9.73;;;1.97;;
2658;SDS011;1339;53.304;10.406;2023-05-20T09:49:33;1.87;;;1.73;;
2658;SDS011;1339;53.304;10.406;2023-05-20T09:52:02;2.20;;;1.80;;
2658;SDS011;1339;53.304;10.406;2023-05-20T09:54:29;8.67;;;2.07;;
2658;SDS011;1339;53.304;10.406;2023-05-20T09:56:57;2.50;;;2.30;;
2658;SDS011;1339;53.304;10.406;2023-05-20T09:59:27;1.70;;;1.57;;
2658;SDS011;1339;53.304;10.406;2023-05-20T10:01:55;2.20;;;2.00;;
2658;SDS011;1339;53.304;10.406;2023-05-20T10:04:22;2.13;;;1.97;;
2658;SDS011;1339;53.304;10.406;2023-05-20T10:06:59;2.27;;;2.03;;
2658;SDS011;1339;53.304;10.406;2023-05-20T10:09:31;2.73;;;1.83;;
2658;SDS011;1339;53.304;10.406;2023-05-20T10:12:04;1.67;;;1.50;;
2658;SDS011;1339;53.304;10.406;2023-05-20T10:14:38;2.53;;;1.67;;
2658;SDS011;1339;53.304;10.406;2023-05-20T10:17:08;3.70;;;2.33;;
2658;SDS011;1339;53.304;10.406;2023-05-20T10:19:36;2.10;;;1.90;;
2658;SDS011;1339;53.304;10.406;2023-05-20T10:22:03;2.40;;;2.20;;
2658;SDS011;1339;53.304;10.406;2023-05-20T10:24:31;6.43;;;1.93;;
2658;SDS011;1339;53.304;10.406;2023-05-20T10:26:58;2.40;;;2.00;;
2658;SDS011;1339;53.304;10.406;2023-05-20T10:29:26;2.90;;;1.90;;
2658;SDS011;1339;53.304;10.406;2023-05-20T10:31:55;3.57;;;1.70;;
2658;SDS011;1339;53.304;10.406;2023-05-20T10:34:22;1.80;;;1.70;;
2658;SDS011;1339;53.304;10.406;2023-05-20T10:36:58;2.97;;;2.10;;
2658;SDS011;1339;53.304;10.406;2023-05-20T10:39:26;1.83;;;1.70;;
2658;SDS011;1339;53.304;10.406;2023-05-20T10:42:04;2.43;;;2.10;;
2658;SDS011;1339;53.304;10.406;2023-05-20T10:44:39;5.43;;;1.87;;
2658;SDS011;1339;53.304;10.406;2023-05-20T10:47:07;3.00;;;1.90;;
2658;SDS011;1339;53.304;10.406;2023-05-20T10:49:34;2.00;;;1.80;;
2658;SDS011;1339;53.304;10.406;2023-05-20T10:52:01;2.10;;;1.90;;
2658;SDS011;1339;53.304;10.406;2023-05-20T10:54:28;3.00;;;1.80;;
2658;SDS011;1339;53.304;10.406;2023-05-20T10:56:55;2.50;;;1.93;;
2658;SDS011;1339;53.304;10.406;2023-05-20T10:59:22;2.13;;;1.93;;
2658;SDS011;1339;53.304;10.406;2023-05-20T11:01:49;2.70;;;1.80;;
2658;SDS011;1339;53.304;10.406;2023-05-20T11:04:17;2.70;;;1.80;;
2658;SDS011;1339;53.304;10.406;2023-05-20T11:06:50;5.57;;;2.90;;
2658;SDS011;1339;53.304;10.406;2023-05-20T11:09:19;7.00;;;2.97;;
2658;SDS011;1339;53.304;10.406;2023-05-20T11:11:46;3.20;;;2.20;;
2658;SDS011;1339;53.304;10.406;2023-05-20T11:14:13;2.73;;;2.13;;
2658;SDS011;1339;53.304;10.406;2023-05-20T11:16:41;5.90;;;2.50;;
2658;SDS011;1339;53.304;10.406;2023-05-20T11:19:13;2.30;;;1.90;;
2658;SDS011;1339;53.304;10.406;2023-05-20T11:21:43;2.63;;;2.20;;
2658;SDS011;1339;53.304;10.406;2023-05-20T11:24:10;4.60;;;3.00;;
2658;SDS011;1339;53.304;10.406;2023-05-20T11:26:37;4.20;;;2.10;;
2658;SDS011;1339;53.304;10.406;2023-05-20T11:29:04;5.30;;;2.63;;
2658;SDS011;1339;53.304;10.406;2023-05-20T11:31:31;2.40;;;1.80;;
2658;SDS011;1339;53.304;10.406;2023-05-20T11:33:58;2.60;;;2.40;;
2658;SDS011;1339;53.304;10.406;2023-05-20T11:36:26;4.50;;;2.37;;
2658;SDS011;1339;53.304;10.406;2023-05-20T11:38:56;3.10;;;2.80;;
2658;SDS011;1339;53.304;10.406;2023-05-20T11:41:23;5.43;;;2.30;;
2658;SDS011;1339;53.304;10.406;2023-05-20T11:43:54;3.07;;;2.77;;
2658;SDS011;1339;53.304;10.406;2023-05-20T11:46:21;2.63;;;2.43;;
2658;SDS011;1339;53.304;10.406;2023-05-20T11:48:50;3.00;;;2.33;;
2658;SDS011;1339;53.304;10.406;2023-05-20T11:51:17;2.63;;;2.03;;
2658;SDS011;1339;53.304;10.406;2023-05-20T11:53:44;3.93;;;2.60;;
2658;SDS011;1339;53.304;10.406;2023-05-20T11:56:14;3.93;;;2.30;;
2658;SDS011;1339;53.304;10.406;2023-05-20T11:58:42;3.93;;;2.63;;
2658;SDS011;1339;53.304;10.406;2023-05-20T12:01:09;4.73;;;2.30;;
2658;SDS011;1339;53.304;10.406;2023-05-20T12:03:36;5.00;;;3.00;;
2658;SDS011;1339;53.304;10.406;2023-05-20T12:06:03;2.57;;;2.33;;
2658;SDS011;1339;53.304;10.406;2023-05-20T12:08:30;3.20;;;2.93;;
2658;SDS011;1339;53.304;10.406;2023-05-20T12:10:57;5.00;;;2.67;;
2658;SDS011;1339;53.304;10.406;2023-05-20T12:13:25;3.10;;;2.40;;
2658;SDS011;1339;53.304;10.406;2023-05-20T12:15:52;2.73;;;2.53;;
2658;SDS011;1339;53.304;10.406;2023-05-20T12:18:20;3.63;;;2.87;;
2658;SDS011;1339;53.304;10.406;2023-05-20T12:20:47;3.30;;;2.87;;
2658;SDS011;1339;53.304;10.406;2023-05-20T12:23:14;2.90;;;2.57;;
2658;SDS011;1339;53.304;10.406;2023-05-20T12:25:41;2.40;;;2.20;;
2658;SDS011;1339;53.304;10.406;2023-05-20T12:28:09;3.73;;;2.80;;
2658;SDS011;1339;53.304;10.406;2023-05-20T12:30:37;3.47;;;2.63;;
2658;SDS011;1339;53.304;10.406;2023-05-20T12:33:04;3.00;;;2.70;;
2658;SDS011;1339;53.304;10.406;2023-05-20T12:35:37;3.17;;;2.87;;
2658;SDS011;1339;53.304;10.406;2023-05-20T12:38:04;5.63;;;3.83;;
2658;SDS011;1339;53.304;10.406;2023-05-20T12:40:31;3.73;;;3.40;;
2658;SDS011;1339;53.304;10.406;2023-05-20T12:42:59;4.63;;;4.23;;
2658;SDS011;1339;53.304;10.406;2023-05-20T12:45:26;4.70;;;4.30;;
2658;SDS011;1339;53.304;10.406;2023-05-20T12:47:55;2.90;;;2.70;;
2658;SDS011;1339;53.304;10.406;2023-05-20T12:50:22;4.13;;;3.63;;
2658;SDS011;1339;53.304;10.406;2023-05-20T12:52:49;3.83;;;2.57;;
2658;SDS011;1339;53.304;10.406;2023-05-20T12:55:16;6.40;;;4.10;;
2658;SDS011;1339;53.304;10.406;2023-05-20T12:57:43;3.47;;;3.10;;
2658;SDS011;1339;53.304;10.406;2023-05-20T13:00:11;4.13;;;3.10;;
2658;SDS011;1339;53.304;10.406;2023-05-20T13:02:38;3.97;;;2.77;;
2658;SDS011;1339;53.304;10.406;2023-05-20T13:05:07;3.53;;;3.00;;
2658;SDS011;1339;53.304;10.406;2023-05-20T13:07:34;3.53;;;2.50;;
2658;SDS011;1339;53.304;10.406;2023-05-20T13:10:00;2.70;;;2.50;;
2658;SDS011;1339;53.304;10.406;2023-05-20T13:12:28;4.60;;;3.00;;
2658;SDS011;1339;53.304;10.406;2023-05-20T13:14:55;5.33;;;3.60;;
2658;SDS011;1339;53.304;10.406;2023-05-20T13:17:23;3.23;;;2.50;;
2658;SDS011;1339;53.304;10.406;2023-05-20T13:19:50;2.77;;;2.53;;
2658;SDS011;1339;53.304;10.406;2023-05-20T13:22:18;4.87;;;2.67;;
2658;SDS011;1339;53.304;10.406;2023-05-20T13:24:45;3.33;;;3.03;;
2658;SDS011;1339;53.304;10.406;2023-05-20T13:27:12;3.50;;;3.17;;
2658;SDS011;1339;53.304;10.406;2023-05-20T13:29:39;3.43;;;2.50;;
2658;SDS011;1339;53.304;10.406;2023-05-20T13:32:07;3.20;;;2.70;;
2658;SDS011;1339;53.304;10.406;2023-05-20T13:34:34;2.57;;;2.37;;
2658;SDS011;1339;53.304;10.406;2023-05-20T13:37:01;3.23;;;2.87;;
2658;SDS011;1339;53.304;10.406;2023-05-20T13:39:29;3.03;;;2.53;;
2658;SDS011;1339;53.304;10.406;2023-05-20T13:41:57;3.93;;;2.60;;
2658;SDS011;1339;53.304;10.406;2023-05-20T13:44:24;4.57;;;2.87;;
2658;SDS011;1339;53.304;10.406;2023-05-20T13:46:51;2.97;;;2.67;;
2658;SDS011;1339;53.304;10.406;2023-05-20T13:49:18;4.20;;;3.10;;
2658;SDS011;1339;53.304;10.406;2023-05-20T13:51:45;3.23;;;3.03;;
2658;SDS011;1339;53.304;10.406;2023-05-20T13:54:12;2.53;;;2.40;;
2658;SDS011;1339;53.304;10.406;2023-05-20T13:56:40;3.33;;;3.03;;
2658;SDS011;1339;53.304;10.406;2023-05-20T13:59:07;2.30;;;2.20;;
2658;SDS011;1339;53.304;10.406;2023-05-20T14:01:34;2.73;;;2.53;;
2658;SDS011;1339;53.304;10.406;2023-05-20T14:04:01;3.03;;;2.83;;
2658;SDS011;1339;53.304;10.406;2023-05-20T14:06:28;3.33;;;2.87;;
2658;SDS011;1339;53.304;10.406;2023-05-20T14:08:55;2.77;;;2.43;;
2658;SDS011;1339;53.304;10.406;2023-05-20T14:11:22;2.40;;;2.20;;
2658;SDS011;1339;53.304;10.406;2023-05-20T14:13:51;2.87;;;2.67;;
2658;SDS011;1339;53.304;10.406;2023-05-20T14:16:18;2.70;;;2.50;;
2658;SDS011;1339;53.304;10.406;2023-05-20T14:18:45;3.30;;;3.10;;
2658;SDS011;1339;53.304;10.406;2023-05-20T14:21:11;2.67;;;2.47;;
2658;SDS011;1339;53.304;10.406;2023-05-20T14:23:38;2.70;;;2.50;;
2658;SDS011;1339;53.304;10.406;2023-05-20T14:26:08;2.80;;;2.60;;
2658;SDS011;1339;53.304;10.406;2023-05-20T14:28:35;2.77;;;2.57;;
2658;SDS011;1339;53.304;10.406;2023-05-20T14:31:04;2.80;;;2.13;;
2658;SDS011;1339;53.304;10.406;2023-05-20T14:33:31;3.10;;;2.80;;
2658;SDS011;1339;53.304;10.406;2023-05-20T14:35:58;3.87;;;2.83;;
2658;SDS011;1339;53.304;10.406;2023-05-20T14:38:25;4.17;;;2.77;;
2658;SDS011;1339;53.304;10.406;2023-05-20T14:40:52;2.63;;;2.43;;
2658;SDS011;1339;53.304;10.406;2023-05-20T14:43:19;2.93;;;2.63;;
2658;SDS011;1339;53.304;10.406;2023-05-20T14:45:46;3.00;;;2.80;;
2658;SDS011;1339;53.304;10.406;2023-05-20T14:48:14;2.70;;;2.00;;
2658;SDS011;1339;53.304;10.406;2023-05-20T14:50:41;3.50;;;2.20;;
2658;SDS011;1339;53.304;10.406;2023-05-20T14:53:08;2.90;;;2.70;;
2658;SDS011;1339;53.304;10.406;2023-05-20T14:55:35;2.20;;;2.00;;
2658;SDS011;1339;53.304;10.406;2023-05-20T14:58:02;2.37;;;2.17;;
2658;SDS011;1339;53.304;10.406;2023-05-20T15:00:29;2.90;;;2.10;;
2658;SDS011;1339;53.304;10.406;2023-05-20T15:02:57;4.37;;;2.17;;